createdAt,value
2022-11-23T00:04:47.240Z,100050.22
2022-11-23T00:09:53.563Z,100053.66
2022-11-23T00:14:59.624Z,100047.69
2022-11-23T00:20:09.901Z,100045.06
2022-11-23T00:25:16.476Z,100040.75
2022-11-23T00:30:23.024Z,100047.63
2022-11-23T00:35:31.105Z,100044.22
2022-11-23T00:40:40.396Z,100046.81
2022-11-23T00:45:46.877Z,100045.97
2022-11-23T00:50:54.570Z,100045.09
2022-11-23T00:56:01.090Z,100031.38
2022-11-23T01:01:10.886Z,100047.66
2022-11-23T01:06:21.990Z,100048.50
2022-11-23T01:11:31.336Z,100042.50
2022-11-23T01:16:40.787Z,100047.66
2022-11-23T01:21:51.492Z,100051.97
2022-11-23T01:26:57.935Z,100056.22
2022-11-23T01:32:06.118Z,100067.41
2022-11-23T01:37:13.793Z,100075.13
2022-11-23T01:42:20.233Z,100070.84
2022-11-23T01:47:27.572Z,100086.31
2022-11-23T01:52:35.578Z,100084.59
2022-11-23T01:57:45.981Z,100082.88
2022-11-23T02:02:58.191Z,100075.16
2022-11-23T02:08:07.515Z,100088.03
2022-11-23T02:13:15.798Z,100083.72
2022-11-23T02:18:25.379Z,100085.41
2022-11-23T02:23:43.508Z,100094.03
2022-11-23T02:28:59.888Z,100094.03
2022-11-23T02:34:08.624Z,100094.03
2022-11-23T02:39:20.363Z,100098.31
2022-11-23T02:55:30.856Z,100104.31
2022-11-23T03:00:42.349Z,100091.44
2022-11-23T03:05:49.152Z,100092.31
2022-11-23T03:10:55.308Z,100101.72
2022-11-23T03:16:04.471Z,100106.88
2022-11-23T03:21:11.406Z,100094.91
2022-11-23T03:26:18.297Z,100094.88
2022-11-23T03:31:35.577Z,100099.16
2022-11-23T03:36:42.088Z,100092.31
2022-11-23T03:41:48.587Z,100090.59
2022-11-23T03:46:57.147Z,100082.88
2022-11-23T03:52:04.041Z,100082.03
2022-11-23T03:57:10.483Z,100070.03
2022-11-23T04:02:18.561Z,100082.88
2022-11-23T04:07:34.122Z,100077.72
2022-11-23T04:12:43.674Z,100079.44
2022-11-23T04:17:51.259Z,100081.16
2022-11-23T04:22:58.022Z,100096.56
2022-11-23T04:28:06.457Z,100105.13
2022-11-23T04:33:14.492Z,100105.09
2022-11-23T04:38:20.901Z,100103.34
2022-11-23T04:43:27.969Z,100100.81
2022-11-23T04:48:35.992Z,100109.31
2022-11-23T04:53:43.632Z,100111.06
2022-11-23T04:58:50.907Z,100115.34
2022-11-23T05:03:59.498Z,100105.06
2022-11-23T05:09:07.048Z,100103.31
2022-11-23T05:14:32.209Z,100093.03
2022-11-23T05:19:39.868Z,100093.03
2022-11-23T05:24:46.953Z,100097.31
2022-11-23T05:29:57.566Z,100097.28
2022-11-23T05:35:05.443Z,100094.72
2022-11-23T05:40:14.317Z,100098.97
2022-11-23T05:45:21.880Z,100097.25
2022-11-23T05:50:33.497Z,100091.28
2022-11-23T05:56:05.924Z,100093.81
2022-11-23T06:01:17.674Z,100103.25
2022-11-23T06:06:25.964Z,100101.47
2022-11-23T06:11:33.433Z,100102.28
2022-11-23T06:16:45.844Z,100103.19
2022-11-23T06:22:15.806Z,100110.88
2022-11-23T06:27:38.408Z,100127.16
2022-11-23T06:32:53.725Z,100112.56
2022-11-23T06:38:04.053Z,100127.13
2022-11-23T06:43:10.731Z,100130.53
2022-11-23T06:48:21.519Z,100126.22
2022-11-23T06:53:30.436Z,100121.09
2022-11-23T06:58:41.861Z,100129.66
2022-11-23T07:03:52.517Z,100128.75
2022-11-23T07:09:06.563Z,100134.75
2022-11-23T07:14:38.780Z,100137.31
2022-11-23T07:19:45.192Z,100131.34
2022-11-23T07:24:53.027Z,100138.19
2022-11-23T07:29:59.099Z,100139.88
2022-11-23T07:35:05.841Z,100142.44
2022-11-23T07:40:17.977Z,100150.13
2022-11-23T07:45:24.574Z,100146.69
2022-11-23T07:50:34.667Z,100147.59
2022-11-23T07:55:42.467Z,100156.16
2022-11-23T08:00:48.689Z,100158.69
2022-11-23T08:05:54.828Z,100163.03
2022-11-23T08:11:02.433Z,100154.47
2022-11-23T08:16:09.457Z,100166.44
2022-11-23T08:21:15.585Z,100167.28
2022-11-23T08:26:23.214Z,100170.75
2022-11-23T08:31:29.473Z,100168.16
2022-11-23T08:36:35.627Z,100171.63
2022-11-23T08:41:43.870Z,100173.28
2022-11-23T08:46:51.203Z,100171.56
2022-11-23T08:51:57.406Z,100184.41
2022-11-23T08:57:05.108Z,100176.75
2022-11-23T09:02:14.201Z,100181.91
2022-11-23T09:07:20.585Z,100193.84
2022-11-23T09:12:28.483Z,100188.72
2022-11-23T09:17:34.782Z,100186.16
2022-11-23T09:22:41.177Z,100178.47
2022-11-23T09:27:49.583Z,100185.25
2022-11-23T09:32:58.328Z,100183.53
2022-11-23T09:38:04.657Z,100180.13
2022-11-23T09:43:42.049Z,100187.81
2022-11-23T09:49:17.806Z,100186.06
2022-11-23T09:54:34.117Z,100180.09
2022-11-23T09:59:47.497Z,100173.25
2022-11-23T10:04:55.229Z,100170.66
2022-11-23T10:10:10.692Z,100166.41
2022-11-23T10:15:27.194Z,100157.00
2022-11-23T10:21:00.387Z,100140.63
2022-11-23T10:26:10.775Z,100142.38
2022-11-23T10:31:21.738Z,100136.34
2022-11-23T10:36:28.152Z,100131.25
2022-11-23T10:41:34.610Z,100121.00
2022-11-23T10:46:43.468Z,100127.81
2022-11-23T10:51:58.993Z,100130.31
2022-11-23T10:57:30.177Z,100132.09
2022-11-23T11:02:44.693Z,100132.06
2022-11-23T11:07:51.418Z,100132.91
2022-11-23T11:12:57.653Z,100120.88
2022-11-23T11:18:05.435Z,100123.41
2022-11-23T11:23:21.731Z,100124.22
2022-11-23T11:28:35.964Z,100113.16
2022-11-23T11:33:48.431Z,100115.75
2022-11-23T11:39:18.697Z,100107.22
2022-11-23T11:44:28.469Z,100111.53
2022-11-23T11:49:43.473Z,100105.50
2022-11-23T11:54:55.093Z,100097.72
2022-11-23T12:00:09.617Z,100088.34
2022-11-23T12:05:25.658Z,100109.75
2022-11-23T12:10:40.203Z,100118.34
2022-11-23T12:15:50.896Z,100116.66
2022-11-23T12:21:07.048Z,100114.91
2022-11-23T12:26:27.863Z,100119.25
2022-11-23T12:31:44.276Z,100121.00
2022-11-23T12:37:14.701Z,100107.28
2022-11-23T12:42:28.062Z,100109.88
2022-11-23T12:47:47.097Z,100117.63
2022-11-23T12:53:07.075Z,100115.91
2022-11-23T12:58:23.041Z,100121.00
2022-11-23T13:04:09.123Z,100119.34
2022-11-23T13:09:33.238Z,100117.56
2022-11-23T13:14:50.911Z,100115.03
2022-11-23T13:20:17.908Z,100116.75
2022-11-23T13:25:29.061Z,100122.78
2022-11-23T13:31:13.809Z,100108.22
2022-11-23T13:36:11.212Z,100111.53
2022-11-23T13:42:02.139Z,100102.09
2022-11-23T13:47:20.922Z,100101.25
2022-11-23T13:52:37.163Z,100103.75
2022-11-23T13:57:47.038Z,100103.78
2022-11-23T14:02:53.383Z,100110.53
2022-11-23T14:08:03.320Z,100121.69
2022-11-23T14:13:20.735Z,100126.00
2022-11-23T14:18:57.906Z,100132.00
2022-11-23T14:24:38.598Z,100125.03
2022-11-23T14:30:09.247Z,100128.44
2022-11-23T14:35:30.081Z,100133.63
2022-11-23T14:41:04.302Z,100143.06
2022-11-23T14:46:19.632Z,100143.84
2022-11-23T14:51:28.162Z,100151.50
2022-11-23T14:56:38.525Z,100145.53
2022-11-23T15:01:52.549Z,100150.66
2022-11-23T15:07:03.936Z,100150.69
2022-11-23T15:12:28.275Z,100142.13
2022-11-23T15:17:36.680Z,100154.94
2022-11-23T15:22:46.092Z,100161.63
2022-11-23T15:27:52.734Z,100172.81
2022-11-23T15:33:02.096Z,100178.81
2022-11-23T15:38:17.763Z,100177.06
2022-11-23T15:43:26.970Z,100179.63
2022-11-23T15:48:37.641Z,100180.47
2022-11-23T15:53:51.079Z,100177.06
2022-11-23T15:58:58.286Z,100171.91
2022-11-23T16:04:08.239Z,100154.78
2022-11-23T16:09:54.629Z,100154.84
2022-11-23T16:15:42.096Z,100159.94
2022-11-23T16:20:53.488Z,100153.09
2022-11-23T16:26:04.022Z,100154.75
2022-11-23T16:31:31.971Z,100165.03
2022-11-23T16:36:41.022Z,100168.47
2022-11-23T16:41:47.980Z,100182.97
2022-11-23T16:46:54.501Z,100188.88
2022-11-23T16:52:02.847Z,100206.72
2022-11-23T16:57:16.288Z,100202.50
2022-11-23T17:02:23.586Z,100207.56
2022-11-23T17:07:33.223Z,100194.59
2022-11-23T17:12:41.457Z,100194.63
2022-11-23T17:17:48.595Z,100173.13
2022-11-23T17:23:00.883Z,100175.69
2022-11-23T17:28:17.318Z,100180.81
2022-11-23T17:33:24.776Z,100185.88
2022-11-23T17:38:34.228Z,100184.09
2022-11-23T17:43:41.191Z,100180.75
2022-11-23T17:48:57.377Z,100185.91
2022-11-23T17:54:06.875Z,100187.56
2022-11-23T17:59:15.195Z,100192.44
2022-11-23T18:04:22.480Z,100185.63
2022-11-23T18:09:31.803Z,100185.63
2022-11-23T18:14:39.566Z,100183.97
2022-11-23T18:19:46.987Z,100193.38
2022-11-23T18:24:56.771Z,100197.69
2022-11-23T18:30:10.201Z,100200.31
2022-11-23T18:35:19.033Z,100194.31
2022-11-23T18:40:29.213Z,100188.25
2022-11-23T18:45:37.134Z,100190.00
2022-11-23T18:50:44.884Z,100180.56
2022-11-23T18:55:59.018Z,100184.88
2022-11-23T19:01:13.337Z,100178.00
2022-11-23T19:06:24.083Z,100172.88
2022-11-23T19:11:33.265Z,100174.53
2022-11-23T19:16:41.046Z,100174.59
2022-11-23T19:21:48.205Z,100178.03
2022-11-23T19:26:57.168Z,100188.19
2022-11-23T19:32:04.779Z,100188.97
2022-11-23T19:37:12.524Z,100182.09
2022-11-23T19:42:21.736Z,100168.41
2022-11-23T19:47:32.419Z,100164.19
2022-11-23T19:53:10.726Z,100179.53
2022-11-23T19:58:10.314Z,100190.53
2022-11-23T20:03:17.823Z,100181.00
2022-11-23T20:08:28.219Z,100195.50
2022-11-23T20:13:39.223Z,100200.56
2022-11-23T20:18:47.935Z,100196.19
2022-11-23T20:24:04.365Z,100191.72
2022-11-23T20:29:15.983Z,100198.59
2022-11-23T20:34:26.404Z,100208.78
2022-11-23T20:39:35.002Z,100201.09
2022-11-23T20:44:45.235Z,100218.84
2022-11-23T20:49:52.823Z,100225.66
2022-11-23T20:55:00.284Z,100223.06
2022-11-23T21:00:11.944Z,100213.63
2022-11-23T21:05:19.770Z,100215.16
2022-11-23T21:10:44.058Z,100221.84
2022-11-23T21:15:52.270Z,100223.59
2022-11-23T21:21:03.458Z,100237.16
2022-11-23T21:26:10.718Z,100229.47
2022-11-23T21:31:19.274Z,100205.41
2022-11-23T21:36:26.955Z,100213.97
2022-11-23T21:41:33.884Z,100206.19
2022-11-23T21:46:43.096Z,100220.03
2022-11-23T21:51:50.621Z,100225.72
2022-11-23T21:56:57.357Z,100221.47
2022-11-23T22:02:05.625Z,100227.69
2022-11-23T22:07:12.662Z,100233.78
2022-11-23T22:12:19.074Z,100245.81
2022-11-23T22:17:28.043Z,100242.38
2022-11-23T22:22:33.974Z,100240.50
2022-11-23T22:27:40.486Z,100245.66
2022-11-23T22:32:48.701Z,100239.63
2022-11-23T22:37:55.878Z,100237.16
2022-11-23T22:43:04.115Z,100244.81
2022-11-23T22:48:12.225Z,100243.22
2022-11-23T22:53:18.542Z,100244.03
2022-11-23T22:58:25.011Z,100239.78
2022-11-23T23:09:33.760Z,100249.09
2022-11-23T23:14:40.125Z,100255.03
2022-11-23T23:19:47.962Z,100246.34
2022-11-23T23:24:54.334Z,100242.00
2022-11-23T23:30:01.412Z,100240.16
2022-11-23T23:35:11.760Z,100245.22
2022-11-23T23:40:18.209Z,100250.34
2022-11-23T23:45:24.458Z,100265.88
2022-11-23T23:50:32.401Z,100253.81
2022-11-23T23:55:38.721Z,100249.50
